Time;durP1;ratioP1;P1;durP2;ratioP2;P2;SDS_P1;SDS_P2;PMS_P1;PMS_P2;Temp;Humidity;BMP_temperature;BMP_pressure;BME280_temperature;BME280_humidity;BME280_pressure;Samples;Min_cycle;Max_cycle;Signal;HPM_P1;HPM_P2
2020/12/07 00:00:13;;;;;;;3.78;2.38;;;21.30;50.80;;;;;;5120941;27;20034;-57
2020/12/07 00:02:41;;;;;;;4.40;2.30;;;21.30;50.80;;;;;;5129603;27;20054;-53
2020/12/07 00:05:07;;;;;;;3.35;2.30;;;21.20;51.30;;;;;;5125136;27;20335;-53
2020/12/07 00:07:33;;;;;;;4.85;2.33;;;21.20;50.80;;;;;;5123898;27;20377;-54
2020/12/07 00:10:01;;;;;;;4.25;2.10;;;21.20;50.80;;;;;;5123915;27;20020;-53
2020/12/07 00:12:29;;;;;;;4.47;2.30;;;21.20;50.80;;;;;;5117917;27;20102;-57
2020/12/07 00:14:54;;;;;;;3.28;1.98;;;21.20;50.80;;;;;;5116040;27;20358;-56
2020/12/07 00:17:24;;;;;;;3.50;2.33;;;21.20;50.80;;;;;;5116356;27;20043;-51
2020/12/07 00:19:50;;;;;;;3.58;2.20;;;21.10;50.80;;;;;;5130694;27;20137;-55
2020/12/07 00:22:21;;;;;;;3.97;2.20;;;21.10;50.80;;;;;;5111269;27;20034;-52
2020/12/07 00:24:46;;;;;;;4.13;2.28;;;21.10;50.80;;;;;;5114621;27;20167;-53
2020/12/07 00:27:12;;;;;;;3.92;2.08;;;21.10;50.90;;;;;;5130495;27;20074;-55
2020/12/07 00:29:37;;;;;;;3.50;2.03;;;21.20;50.90;;;;;;5125966;27;20050;-53
2020/12/07 00:32:03;;;;;;;4.72;1.98;;;21.10;50.80;;;;;;5132229;27;20019;-55
2020/12/07 00:34:28;;;;;;;3.25;2.00;;;21.10;50.80;;;;;;5133675;27;20066;-53
2020/12/07 00:36:54;;;;;;;3.72;2.00;;;21.10;50.90;;;;;;5124984;27;20478;-52
2020/12/07 00:39:20;;;;;;;2.88;1.80;;;21.10;50.90;;;;;;5129847;27;20027;-53
2020/12/07 00:41:45;;;;;;;3.17;2.00;;;21.10;50.90;;;;;;5126036;27;20053;-53
2020/12/07 00:44:11;;;;;;;4.13;2.15;;;21.00;50.80;;;;;;5117457;27;20490;-51
2020/12/07 00:46:36;;;;;;;3.00;1.85;;;21.00;50.80;;;;;;5123460;27;20043;-53
2020/12/07 00:49:02;;;;;;;3.28;1.85;;;21.00;50.80;;;;;;5127557;27;20049;-54
2020/12/07 00:51:27;;;;;;;3.40;2.10;;;21.00;50.80;;;;;;5129626;27;20122;-57
2020/12/07 00:53:53;;;;;;;3.45;2.08;;;21.00;50.90;;;;;;5128132;27;20023;-52
2020/12/07 00:56:19;;;;;;;2.83;1.80;;;21.00;50.90;;;;;;5131925;27;20184;-53
2020/12/07 00:58:44;;;;;;;3.30;1.92;;;21.00;50.90;;;;;;5130188;27;20122;-53
2020/12/07 01:01:10;;;;;;;4.10;2.10;;;20.90;50.90;;;;;;5123301;27;20030;-56
2020/12/07 01:03:35;;;;;;;3.03;1.85;;;20.90;50.90;;;;;;5123213;27;20057;-50
2020/12/07 01:06:01;;;;;;;3.08;1.70;;;20.90;50.90;;;;;;5122200;27;20035;-55
2020/12/07 01:08:26;;;;;;;2.42;1.63;;;20.90;50.80;;;;;;5136811;27;20038;-54
2020/12/07 01:10:56;;;;;;;3.75;1.85;;;20.90;51.40;;;;;;5127047;27;20553;-51
2020/12/07 01:13:22;;;;;;;3.05;2.08;;;20.90;50.90;;;;;;5114233;27;20027;-55
2020/12/07 01:15:50;;;;;;;3.20;1.80;;;20.90;50.90;;;;;;5130004;27;20042;-54
2020/12/07 01:18:16;;;;;;;2.90;1.80;;;20.90;50.90;;;;;;5123630;27;20030;-54
2020/12/07 01:20:42;;;;;;;3.05;1.70;;;20.90;50.90;;;;;;5119267;27;20231;-56
2020/12/07 01:23:07;;;;;;;2.80;1.60;;;20.90;50.90;;;;;;5128528;27;20171;-51
2020/12/07 01:25:33;;;;;;;3.10;1.80;;;20.80;51.00;;;;;;5129568;27;20465;-55
2020/12/07 01:27:58;;;;;;;3.08;1.77;;;20.90;51.00;;;;;;5124844;27;20023;-55
2020/12/07 01:30:24;;;;;;;2.80;1.60;;;20.80;51.00;;;;;;5128650;27;20149;-55
2020/12/07 01:32:49;;;;;;;3.00;1.70;;;20.80;51.00;;;;;;5136188;27;20047;-52
2020/12/07 01:35:15;;;;;;;2.80;1.55;;;20.80;51.00;;;;;;5126277;27;20466;-54
2020/12/07 01:37:41;;;;;;;3.22;1.75;;;20.80;51.00;;;;;;5134358;27;20142;-56
2020/12/07 01:40:06;;;;;;;2.83;1.45;;;20.80;51.10;;;;;;5126817;27;20019;-55
2020/12/07 01:42:32;;;;;;;2.53;1.67;;;20.80;51.00;;;;;;5129745;27;20035;-52
2020/12/07 01:44:58;;;;;;;2.33;1.60;;;20.80;51.00;;;;;;5130580;27;20117;-53
2020/12/07 01:47:28;;;;;;;2.40;1.55;;;20.80;51.10;;;;;;5130528;27;20034;-51
2020/12/07 01:49:55;;;;;;;2.20;1.55;;;20.80;51.00;;;;;;5129174;27;20187;-55
2020/12/07 01:52:22;;;;;;;2.75;1.50;;;20.70;51.00;;;;;;5127340;27;20028;-51
2020/12/07 01:54:49;;;;;;;2.38;1.52;;;20.70;51.00;;;;;;5130567;27;20066;-50
2020/12/07 01:57:15;;;;;;;2.30;1.50;;;20.70;51.00;;;;;;5124432;27;20089;-49
2020/12/07 01:59:40;;;;;;;2.28;1.48;;;20.70;51.10;;;;;;5131814;27;20050;-53
2020/12/07 02:02:06;;;;;;;2.90;1.67;;;20.70;51.10;;;;;;5128264;27;20483;-55
2020/12/07 02:04:32;;;;;;;2.38;1.40;;;20.70;51.10;;;;;;5124870;27;20552;-53
2020/12/07 02:06:58;;;;;;;3.38;1.52;;;20.70;51.10;;;;;;5122301;27;20346;-50
2020/12/07 02:09:30;;;;;;;2.17;1.40;;;20.60;51.10;;;;;;5116915;27;20047;-55
2020/12/07 02:11:56;;;;;;;3.05;1.67;;;20.70;51.10;;;;;;5116093;27;20099;-51
2020/12/07 02:14:22;;;;;;;2.30;1.40;;;20.60;51.10;;;;;;5127471;27;20035;-52
2020/12/07 02:16:48;;;;;;;2.33;1.55;;;20.60;51.10;;;;;;5124210;27;20028;-52
2020/12/07 02:19:14;;;;;;;2.28;1.60;;;20.60;51.10;;;;;;5102161;27;20092;-53
2020/12/07 02:21:40;;;;;;;2.80;1.60;;;20.60;51.10;;;;;;5119772;27;20023;-54
2020/12/07 02:24:05;;;;;;;2.78;1.60;;;20.60;51.10;;;;;;5129046;27;20439;-50
2020/12/07 02:26:31;;;;;;;2.90;1.73;;;20.60;51.70;;;;;;5119677;27;20035;-51
2020/12/07 02:28:57;;;;;;;2.63;1.33;;;20.50;51.60;;;;;;5123184;27;20153;-55
2020/12/07 02:31:22;;;;;;;3.00;1.80;;;20.60;51.20;;;;;;5130474;27;20370;-51
2020/12/07 02:33:48;;;;;;;2.38;1.55;;;20.60;51.20;;;;;;5125378;27;20151;-51
2020/12/07 02:36:13;;;;;;;2.30;1.30;;;20.60;51.20;;;;;;5120446;27;20019;-51
2020/12/07 02:38:39;;;;;;;1.98;1.20;;;20.50;51.10;;;;;;5121897;27;20100;-54
2020/12/07 02:41:05;;;;;;;2.17;1.40;;;20.50;51.20;;;;;;5133755;27;20047;-53
2020/12/07 02:43:30;;;;;;;2.20;1.40;;;20.50;51.10;;;;;;5127956;27;20059;-55
2020/12/07 02:45:56;;;;;;;2.58;1.55;;;20.50;51.20;;;;;;5125216;27;20023;-53
2020/12/07 02:48:21;;;;;;;2.55;1.40;;;20.50;51.20;;;;;;5127067;27;20030;-57
2020/12/07 02:50:47;;;;;;;2.15;1.33;;;20.50;51.20;;;;;;5128141;27;20041;-49
2020/12/07 02:53:13;;;;;;;2.65;1.45;;;20.50;51.20;;;;;;5128974;27;20023;-56
2020/12/07 02:55:38;;;;;;;3.05;1.58;;;20.50;51.30;;;;;;5120676;27;20045;-55
2020/12/07 02:58:04;;;;;;;2.42;1.40;;;20.50;51.30;;;;;;5125284;27;20185;-50
2020/12/07 03:00:29;;;;;;;2.78;1.52;;;20.50;51.30;;;;;;5128541;27;20030;-52
2020/12/07 03:02:55;;;;;;;2.42;1.40;;;20.50;51.30;;;;;;5118201;27;20023;-51
2020/12/07 03:05:20;;;;;;;2.63;1.50;;;20.40;51.20;;;;;;5122037;27;20473;-49
2020/12/07 03:07:46;;;;;;;1.70;1.20;;;20.40;51.30;;;;;;5126209;27;20035;-54
2020/12/07 03:10:12;;;;;;;2.50;1.35;;;20.40;51.20;;;;;;5120851;27;20130;-54
2020/12/07 03:12:37;;;;;;;2.30;1.45;;;20.40;51.30;;;;;;5135485;27;20084;-53
2020/12/07 03:15:03;;;;;;;1.92;1.25;;;20.40;51.30;;;;;;5129679;27;20060;-54
2020/12/07 03:17:28;;;;;;;2.03;1.35;;;20.40;51.30;;;;;;5132487;27;20393;-57
2020/12/07 03:19:54;;;;;;;1.90;1.20;;;20.40;51.30;;;;;;5135408;27;20026;-57
2020/12/07 03:22:20;;;;;;;1.92;1.30;;;20.40;51.30;;;;;;5142226;27;20046;-52
2020/12/07 03:24:45;;;;;;;2.13;1.33;;;20.40;51.30;;;;;;5124668;27;20036;-57
2020/12/07 03:27:11;;;;;;;1.98;1.30;;;20.40;51.30;;;;;;5130875;27;20160;-58
2020/12/07 03:29:36;;;;;;;1.73;1.23;;;20.40;51.30;;;;;;5130151;27;20111;-54
2020/12/07 03:32:02;;;;;;;1.60;1.13;;;20.40;51.30;;;;;;5133723;27;20033;-52
2020/12/07 03:34:28;;;;;;;2.33;1.38;;;20.40;51.30;;;;;;5132742;27;20019;-57
2020/12/07 03:36:53;;;;;;;2.17;1.30;;;20.40;51.30;;;;;;5132895;27;20027;-54
2020/12/07 03:39:19;;;;;;;2.88;1.50;;;20.40;51.30;;;;;;5129447;27;20030;-54
2020/12/07 03:41:45;;;;;;;2.30;1.40;;;20.40;51.30;;;;;;5132672;27;20023;-53
2020/12/07 03:44:10;;;;;;;2.22;1.40;;;20.30;51.20;;;;;;5132991;27;20065;-55
2020/12/07 03:46:36;;;;;;;2.72;1.38;;;20.30;51.20;;;;;;5132598;27;20095;-55
2020/12/07 03:49:02;;;;;;;2.33;1.27;;;20.30;51.30;;;;;;5125479;27;20027;-56
2020/12/07 03:51:27;;;;;;;2.33;1.15;;;20.30;51.30;;;;;;5126737;27;20031;-50
2020/12/07 03:53:53;;;;;;;1.52;1.05;;;20.30;51.30;;;;;;5129246;27;20034;-51
2020/12/07 03:56:18;;;;;;;1.80;1.15;;;20.40;51.30;;;;;;5136110;27;20434;-53
2020/12/07 03:58:44;;;;;;;2.00;1.20;;;20.30;51.30;;;;;;5123849;27;20069;-51
2020/12/07 04:01:10;;;;;;;1.80;1.13;;;20.30;51.30;;;;;;5124054;27;20023;-54
2020/12/07 04:03:37;;;;;;;1.80;1.17;;;20.30;51.30;;;;;;5132171;27;20081;-56
2020/12/07 04:08:29;;;;;;;2.20;1.27;;;20.30;51.30;;;;;;5118049;27;20041;-53
2020/12/07 04:10:55;;;;;;;1.50;1.10;;;20.30;51.30;;;;;;5120891;27;20193;-49
2020/12/07 04:13:20;;;;;;;1.73;1.05;;;20.30;51.40;;;;;;5112096;27;20031;-52
2020/12/07 04:15:46;;;;;;;2.10;1.20;;;20.30;51.30;;;;;;5124867;27;20023;-52
2020/12/07 04:18:12;;;;;;;1.92;1.10;;;20.30;51.40;;;;;;5115911;27;20641;-53
2020/12/07 04:20:37;;;;;;;1.83;1.00;;;20.30;51.90;;;;;;5126552;27;20031;-54
2020/12/07 04:23:03;;;;;;;1.75;1.10;;;20.30;51.40;;;;;;5121112;27;20023;-50
2020/12/07 04:25:28;;;;;;;2.05;1.00;;;20.20;51.30;;;;;;5120987;27;20119;-54
2020/12/07 04:27:54;;;;;;;1.60;0.95;;;20.20;51.30;;;;;;5123178;27;20051;-51
2020/12/07 04:30:20;;;;;;;1.83;1.10;;;20.20;51.30;;;;;;5119694;27;20353;-52
2020/12/07 04:32:45;;;;;;;1.90;1.20;;;20.30;51.40;;;;;;5121169;27;20106;-54
2020/12/07 04:35:11;;;;;;;1.80;1.20;;;20.20;51.40;;;;;;5114535;27;20682;-52
2020/12/07 04:37:36;;;;;;;1.80;1.10;;;20.20;51.30;;;;;;5113295;27;20038;-58
2020/12/07 04:40:04;;;;;;;1.30;0.90;;;20.20;51.40;;;;;;5128138;27;20086;-52
2020/12/07 04:42:30;;;;;;;1.80;1.20;;;20.20;51.40;;;;;;5127697;27;20436;-50
2020/12/07 04:44:56;;;;;;;1.65;1.02;;;20.20;51.40;;;;;;5120399;27;20031;-54
2020/12/07 04:47:24;;;;;;;1.42;0.95;;;20.20;51.40;;;;;;5116916;27;20115;-51
2020/12/07 04:49:53;;;;;;;2.38;1.30;;;20.20;51.40;;;;;;5121891;27;20552;-56
2020/12/07 04:52:19;;;;;;;1.60;1.00;;;20.20;51.40;;;;;;5125659;27;20980;-51
2020/12/07 04:54:46;;;;;;;1.48;1.10;;;20.20;51.40;;;;;;5131130;27;20035;-57
2020/12/07 04:57:14;;;;;;;2.05;1.23;;;20.20;51.40;;;;;;5118520;27;20020;-53
2020/12/07 04:59:41;;;;;;;1.48;1.00;;;20.20;51.40;;;;;;5131671;27;20136;-52
2020/12/07 05:02:07;;;;;;;1.92;1.10;;;20.20;51.50;;;;;;5125861;27;20043;-53
2020/12/07 05:04:34;;;;;;;1.50;1.20;;;20.20;51.50;;;;;;5109520;27;20088;-54
2020/12/07 05:07:04;;;;;;;1.40;1.08;;;20.10;51.50;;;;;;5115345;27;20074;-53
2020/12/07 05:09:31;;;;;;;1.20;0.88;;;20.20;51.50;;;;;;5133054;27;20031;-52
2020/12/07 05:12:00;;;;;;;1.40;0.80;;;20.20;51.60;;;;;;5131595;27;20028;-54
2020/12/07 05:14:25;;;;;;;1.30;0.90;;;20.10;51.50;;;;;;5119852;27;20032;-57
2020/12/07 05:16:51;;;;;;;1.77;1.05;;;20.10;51.60;;;;;;5118183;27;20124;-52
2020/12/07 05:19:21;;;;;;;1.58;1.10;;;20.10;51.50;;;;;;5116440;27;20442;-54
2020/12/07 05:21:47;;;;;;;1.48;1.00;;;20.20;51.60;;;;;;5110288;27;20042;-56
2020/12/07 05:24:13;;;;;;;1.08;0.82;;;20.10;51.50;;;;;;5108966;27;20036;-54
2020/12/07 05:26:39;;;;;;;1.60;0.93;;;20.10;51.50;;;;;;5108066;27;20040;-57
2020/12/07 05:29:28;;;;;;;1.70;1.00;;;20.10;51.50;;;;;;5119838;27;20025;-50
2020/12/07 05:31:53;;;;;;;2.00;1.03;;;20.10;51.60;;;;;;5108149;27;20100;-52
2020/12/07 05:34:23;;;;;;;1.40;1.00;;;20.10;51.60;;;;;;5124407;27;20112;-55
2020/12/07 05:36:54;;;;;;;1.98;1.00;;;20.10;51.60;;;;;;5120014;27;20033;-52
2020/12/07 05:39:21;;;;;;;1.88;1.10;;;20.10;51.70;;;;;;5108328;27;20070;-54
2020/12/07 05:41:46;;;;;;;1.45;0.85;;;20.10;51.70;;;;;;5121487;27;20057;-55
2020/12/07 05:44:12;;;;;;;2.00;1.00;;;20.10;51.70;;;;;;5114909;27;20043;-53
2020/12/07 05:46:41;;;;;;;1.88;1.00;;;20.10;51.80;;;;;;5117234;27;20063;-54
2020/12/07 05:49:07;;;;;;;2.03;1.10;;;20.10;51.80;;;;;;5120468;27;20031;-56
2020/12/07 05:51:36;;;;;;;3.20;1.20;;;20.10;51.80;;;;;;5120665;27;20091;-52
2020/12/07 05:54:02;;;;;;;2.25;1.10;;;20.10;51.90;;;;;;5117222;27;20030;-55
2020/12/07 05:56:33;;;;;;;3.03;1.15;;;20.10;51.90;;;;;;5110082;27;20023;-55
2020/12/07 05:59:06;;;;;;;2.08;1.10;;;20.10;51.90;;;;;;5117839;27;20028;-57
2020/12/07 06:01:36;;;;;;;2.60;1.10;;;20.10;51.90;;;;;;5130547;27;20062;-52
2020/12/07 06:04:02;;;;;;;2.35;1.10;;;20.10;52.00;;;;;;5121834;27;20019;-54
2020/12/07 06:06:35;;;;;;;1.85;1.00;;;20.10;52.00;;;;;;5121247;27;20071;-57
2020/12/07 06:09:21;;;;;;;1.95;1.00;;;20.10;52.10;;;;;;5115634;27;20156;-54
2020/12/07 06:11:57;;;;;;;1.55;1.00;;;20.10;52.00;;;;;;5115788;27;20054;-53
2020/12/07 06:14:23;;;;;;;1.83;1.00;;;20.10;52.10;;;;;;5122535;27;20046;-52
2020/12/07 06:16:51;;;;;;;3.75;1.20;;;20.10;52.10;;;;;;5118873;27;20053;-59
2020/12/07 06:19:18;;;;;;;2.58;1.30;;;20.10;52.40;;;;;;5110029;27;20042;-53
2020/12/07 06:22:01;;;;;;;2.47;1.27;;;20.20;53.10;;;;;;5124143;27;20023;-53
2020/12/07 06:24:40;;;;;;;2.45;1.30;;;20.40;53.20;;;;;;5131619;27;20394;-54
2020/12/07 06:27:09;;;;;;;3.75;1.50;;;20.70;53.10;;;;;;5120401;27;20031;-51
2020/12/07 06:29:35;;;;;;;3.85;1.25;;;20.90;52.70;;;;;;5122377;27;20447;-56
2020/12/07 06:32:01;;;;;;;2.58;1.45;;;21.10;52.50;;;;;;5139082;27;20019;-49
2020/12/07 06:34:40;;;;;;;2.00;1.20;;;21.30;52.20;;;;;;5120646;27;20038;-52
2020/12/07 06:37:10;;;;;;;1.50;1.10;;;21.40;51.80;;;;;;5128058;27;21481;-49
2020/12/07 06:39:46;;;;;;;2.33;0.98;;;21.30;51.70;;;;;;5117947;27;20045;-56
2020/12/07 06:42:14;;;;;;;2.70;1.33;;;21.30;51.80;;;;;;5116723;27;20775;-53
2020/12/07 06:44:51;;;;;;;3.10;1.30;;;21.30;52.50;;;;;;5115678;27;20030;-54
2020/12/07 06:47:21;;;;;;;1.58;0.93;;;21.50;52.60;;;;;;5111319;27;20232;-50
2020/12/07 06:52:15;;;;;;;1.77;0.85;;;21.70;51.90;;;;;;5108846;27;20042;-50
2020/12/07 06:57:30;;;;;;;2.13;1.15;;;21.50;52.00;;;;;;5110018;27;20035;-50
2020/12/07 07:00:11;;;;;;;2.85;1.10;;;21.60;52.40;;;;;;5109958;27;20075;-52
2020/12/07 07:02:38;;;;;;;0.80;0.70;;;21.80;52.30;;;;;;5117952;27;20089;-56
2020/12/07 07:05:05;;;;;;;1.90;0.90;;;22.00;51.80;;;;;;5123106;27;20034;-50
2020/12/07 07:07:31;;;;;;;1.42;1.20;;;22.00;51.80;;;;;;5129905;27;20441;-55
2020/12/07 07:09:58;;;;;;;1.25;0.80;;;22.00;52.00;;;;;;5133879;27;20019;-53
2020/12/07 07:12:25;;;;;;;2.90;1.10;;;21.90;52.00;;;;;;5128767;27;20035;-52
2020/12/07 07:14:56;;;;;;;2.38;1.10;;;21.90;52.40;;;;;;5126098;27;20460;-57
2020/12/07 07:17:24;;;;;;;2.20;0.80;;;22.20;52.20;;;;;;5120167;27;20509;-53
2020/12/07 07:19:49;;;;;;;1.63;0.90;;;22.40;51.70;;;;;;5125221;27;20037;-50
2020/12/07 07:22:15;;;;;;;1.08;0.73;;;22.40;51.60;;;;;;5121920;27;20027;-51
2020/12/07 07:24:51;;;;;;;1.27;0.70;;;22.30;51.60;;;;;;5115740;27;20038;-52
2020/12/07 07:30:03;;;;;;;1.98;0.90;;;22.30;52.20;;;;;;5123580;27;20100;-51
2020/12/07 07:32:29;;;;;;;1.00;0.70;;;22.50;52.10;;;;;;5126186;27;20069;-58
2020/12/07 07:34:54;;;;;;;1.58;0.88;;;22.70;51.70;;;;;;5114224;28;20051;-54
2020/12/07 07:37:20;;;;;;;1.23;0.70;;;22.70;51.50;;;;;;5133203;27;20031;-55
2020/12/07 07:39:47;;;;;;;1.48;0.90;;;22.60;52.20;;;;;;5124384;27;20052;-52
2020/12/07 07:42:16;;;;;;;1.65;0.90;;;22.60;52.00;;;;;;5125586;27;20042;-57
2020/12/07 07:44:45;;;;;;;1.40;0.90;;;22.60;52.20;;;;;;5116105;27;20043;-51
2020/12/07 07:47:17;;;;;;;1.02;0.70;;;22.80;52.30;;;;;;5119131;27;20332;-54
2020/12/07 08:17:58;;;;;;;0.95;0.60;;;23.10;52.10;;;;;;5124187;27;20322;-56
2020/12/07 08:20:30;;;;;;;2.58;0.70;;;23.10;52.00;;;;;;5125077;27;20076;-50
2020/12/07 08:23:03;;;;;;;0.73;0.52;;;23.10;52.20;;;;;;5118054;27;20043;-50
2020/12/07 08:25:41;;;;;;;2.55;0.73;;;23.10;52.40;;;;;;5120971;27;20054;-55
2020/12/07 08:28:26;;;;;;;0.97;0.57;;;23.10;52.90;;;;;;5134579;27;20022;-53
2020/12/07 08:31:17;;;;;;;0.80;0.50;;;23.30;53.10;;;;;;5114035;27;20290;-52
2020/12/07 08:34:00;;;;;;;1.63;0.80;;;23.30;53.30;;;;;;5120347;27;20539;-49
2020/12/07 08:36:28;;;;;;;0.77;0.60;;;23.30;52.80;;;;;;5134521;27;20074;-57
2020/12/07 08:38:54;;;;;;;0.70;0.63;;;23.30;52.60;;;;;;5113303;27;20019;-52
2020/12/07 08:41:23;;;;;;;1.15;0.80;;;23.30;53.10;;;;;;5140908;27;20503;-52
2020/12/07 08:44:01;;;;;;;0.90;0.60;;;23.30;52.60;;;;;;5125321;27;20039;-52
2020/12/07 08:46:28;;;;;;;1.25;0.60;;;23.30;52.70;;;;;;5118185;27;20122;-51
2020/12/07 08:48:55;;;;;;;1.77;0.70;;;23.30;52.90;;;;;;5134176;27;20022;-51
2020/12/07 08:51:23;;;;;;;2.17;0.90;;;23.30;52.80;;;;;;5137756;27;20027;-55
2020/12/07 08:53:49;;;;;;;2.55;1.45;;;23.30;50.30;;;;;;5122445;27;20450;-54
2020/12/07 08:56:15;;;;;;;1.95;1.40;;;23.20;41.50;;;;;;5121888;27;20037;-51
2020/12/07 08:58:42;;;;;;;2.00;1.33;;;23.10;38.80;;;;;;5132850;27;20477;-53
2020/12/07 09:01:10;;;;;;;2.08;1.30;;;22.90;37.00;;;;;;5118811;27;20029;-54
2020/12/07 09:03:37;;;;;;;4.05;2.00;;;22.80;36.00;;;;;;5127160;27;20070;-56
2020/12/07 09:06:06;;;;;;;3.38;2.22;;;22.70;34.40;;;;;;5112312;27;20038;-54
2020/12/07 09:08:32;;;;;;;2.97;1.90;;;22.50;34.30;;;;;;5102833;27;20079;-50
2020/12/07 09:10:58;;;;;;;2.13;1.33;;;22.40;35.00;;;;;;5132487;27;20062;-54
2020/12/07 09:13:24;;;;;;;2.50;1.60;;;22.20;34.70;;;;;;5134466;27;20079;-49
2020/12/07 09:15:53;;;;;;;1.85;1.20;;;22.10;35.10;;;;;;5135956;27;20097;-54
2020/12/07 09:18:19;;;;;;;2.00;1.00;;;22.00;38.80;;;;;;5137981;27;20023;-52
2020/12/07 09:20:45;;;;;;;5.82;0.90;;;22.10;40.90;;;;;;5128427;27;20107;-52
2020/12/07 09:23:11;;;;;;;1.48;0.80;;;22.10;41.90;;;;;;5131208;27;20111;-54
2020/12/07 09:25:36;;;;;;;1.33;0.80;;;22.30;42.70;;;;;;5130483;27;20019;-55
2020/12/07 09:28:03;;;;;;;1.38;0.70;;;22.30;43.50;;;;;;5131807;27;20034;-54
2020/12/07 09:30:29;;;;;;;1.17;0.73;;;22.30;43.70;;;;;;5132280;27;20031;-54
2020/12/07 09:32:54;;;;;;;0.90;0.63;;;22.40;44.30;;;;;;5126200;27;20029;-51
2020/12/07 09:35:20;;;;;;;1.70;1.00;;;22.40;44.60;;;;;;5119809;27;20031;-53
2020/12/07 09:37:46;;;;;;;1.02;0.63;;;22.50;45.00;;;;;;5121867;27;20385;-56
2020/12/07 09:40:12;;;;;;;0.95;0.70;;;22.50;45.40;;;;;;5131576;27;20019;-56
2020/12/07 09:42:39;;;;;;;1.30;0.80;;;22.50;45.70;;;;;;5141984;27;20443;-53
2020/12/07 09:45:09;;;;;;;1.08;0.63;;;22.60;46.10;;;;;;5141762;27;20105;-54
2020/12/07 09:47:35;;;;;;;1.10;0.80;;;22.60;46.40;;;;;;5128921;27;20059;-52
2020/12/07 09:50:08;;;;;;;2.13;0.70;;;22.60;46.60;;;;;;5118407;27;20070;-55
2020/12/07 09:52:34;;;;;;;1.40;0.80;;;22.60;46.80;;;;;;5115389;27;20436;-51
2020/12/07 09:55:00;;;;;;;0.98;0.63;;;22.70;47.10;;;;;;5132262;27;20027;-53
2020/12/07 09:57:26;;;;;;;1.13;0.70;;;22.70;47.30;;;;;;5114796;27;20080;-52
2020/12/07 09:59:51;;;;;;;0.77;0.50;;;22.70;47.80;;;;;;5117189;27;20418;-54
2020/12/07 10:02:17;;;;;;;0.90;0.60;;;22.70;48.40;;;;;;5123681;27;20038;-52
2020/12/07 10:04:43;;;;;;;0.90;0.60;;;22.80;48.50;;;;;;5137912;27;20031;-56
2020/12/07 10:07:09;;;;;;;0.85;0.57;;;22.80;49.10;;;;;;5126836;27;20055;-53
2020/12/07 10:09:35;;;;;;;0.90;0.60;;;22.90;48.90;;;;;;5129327;27;20023;-56
2020/12/07 10:12:01;;;;;;;1.35;0.60;;;22.90;49.30;;;;;;5130645;27;20069;-53
2020/12/07 10:14:27;;;;;;;0.55;0.50;;;23.00;49.20;;;;;;5127611;27;20357;-55
2020/12/07 10:16:52;;;;;;;0.85;0.52;;;23.00;49.00;;;;;;5119972;27;20030;-54
2020/12/07 10:19:18;;;;;;;0.70;0.60;;;23.00;49.80;;;;;;5128604;27;20050;-51
2020/12/07 10:21:44;;;;;;;0.85;0.70;;;23.00;50.00;;;;;;5133953;27;20763;-53
2020/12/07 10:24:09;;;;;;;0.93;0.55;;;23.00;49.80;;;;;;5132007;27;20202;-51
2020/12/07 10:26:35;;;;;;;0.88;0.50;;;23.00;50.10;;;;;;5122042;27;20039;-55
2020/12/07 10:29:02;;;;;;;0.60;0.52;;;23.00;50.00;;;;;;5120824;27;20041;-57
2020/12/07 10:31:27;;;;;;;0.80;0.60;;;23.00;49.70;;;;;;5120645;27;20066;-49
2020/12/07 10:33:54;;;;;;;2.03;0.50;;;23.00;50.00;;;;;;5135126;27;20154;-55
2020/12/07 10:36:20;;;;;;;2.45;0.50;;;23.10;50.50;;;;;;5125563;27;20109;-50
2020/12/07 10:38:47;;;;;;;0.68;0.50;;;23.10;50.10;;;;;;5122352;27;20176;-54
2020/12/07 10:41:14;;;;;;;0.60;0.50;;;23.10;50.60;;;;;;5116437;27;20027;-52
2020/12/07 10:43:41;;;;;;;0.88;0.50;;;23.10;50.30;;;;;;5113144;27;20028;-52
2020/12/07 10:46:07;;;;;;;1.25;0.50;;;23.10;50.40;;;;;;5119130;27;20034;-55
2020/12/07 10:48:33;;;;;;;1.30;0.60;;;23.10;51.80;;;;;;5116609;27;20031;-52
2020/12/07 10:50:58;;;;;;;1.20;0.57;;;23.20;51.40;;;;;;5138922;27;20031;-51
2020/12/07 10:53:24;;;;;;;0.85;0.60;;;23.20;51.60;;;;;;5123280;27;20023;-55
2020/12/07 10:55:50;;;;;;;1.20;0.60;;;23.20;51.10;;;;;;5131595;27;20716;-55
2020/12/07 10:58:16;;;;;;;1.25;0.60;;;23.20;51.30;;;;;;5117509;27;20542;-51
2020/12/07 11:00:42;;;;;;;1.13;0.55;;;23.30;51.80;;;;;;5122955;27;20477;-48
2020/12/07 11:03:08;;;;;;;0.95;0.60;;;23.30;51.70;;;;;;5116429;27;20032;-49
2020/12/07 11:05:34;;;;;;;0.90;0.52;;;23.30;51.70;;;;;;5125406;27;20178;-54
2020/12/07 11:08:00;;;;;;;1.55;0.50;;;23.30;51.90;;;;;;5130040;27;20069;-51
2020/12/07 11:10:26;;;;;;;2.33;0.98;;;23.40;51.90;;;;;;5124425;27;20070;-52
2020/12/07 11:13:02;;;;;;;0.77;0.50;;;23.30;52.20;;;;;;5119386;27;20405;-52
2020/12/07 11:15:29;;;;;;;0.95;0.60;;;23.40;51.70;;;;;;5115170;28;20110;-55
2020/12/07 11:17:54;;;;;;;1.55;0.52;;;23.40;51.60;;;;;;5115584;27;20035;-54
2020/12/07 11:20:20;;;;;;;1.40;0.60;;;23.40;52.50;;;;;;5111725;27;20051;-54
2020/12/07 11:22:46;;;;;;;1.02;0.60;;;23.40;51.90;;;;;;5114380;28;20064;-53
2020/12/07 11:25:11;;;;;;;0.68;0.52;;;23.40;51.50;;;;;;5124585;27;20031;-53
2020/12/07 11:27:37;;;;;;;0.82;0.50;;;23.40;52.10;;;;;;5130659;27;20110;-55
2020/12/07 11:30:03;;;;;;;0.82;0.40;;;23.40;51.90;;;;;;5139654;27;20065;-54
2020/12/07 11:32:29;;;;;;;0.82;0.55;;;23.40;51.30;;;;;;5125149;27;20734;-55
2020/12/07 11:34:54;;;;;;;0.43;0.43;;;23.40;51.50;;;;;;5116122;27;20027;-58
2020/12/07 11:37:20;;;;;;;1.15;0.50;;;23.40;51.50;;;;;;5127749;27;20027;-53
2020/12/07 11:39:58;;;;;;;1.40;0.60;;;23.40;51.90;;;;;;5125392;27;20040;-54
2020/12/07 11:42:35;;;;;;;1.05;0.60;;;23.50;53.00;;;;;;5117868;27;20426;-56
2020/12/07 11:45:00;;;;;;;0.38;0.35;;;23.50;52.60;;;;;;5133257;27;20030;-54
2020/12/07 11:47:26;;;;;;;2.30;0.60;;;23.50;52.10;;;;;;5123391;27;20031;-57
2020/12/07 11:49:51;;;;;;;0.63;0.45;;;23.60;52.70;;;;;;5130139;27;20092;-51
2020/12/07 11:52:17;;;;;;;0.52;0.40;;;23.60;52.30;;;;;;5123174;27;20036;-56
2020/12/07 11:54:43;;;;;;;0.90;0.57;;;23.60;52.50;;;;;;5134225;27;20046;-52
2020/12/07 11:57:08;;;;;;;0.95;0.60;;;23.60;52.00;;;;;;5135917;27;20062;-54
2020/12/07 11:59:35;;;;;;;0.90;0.47;;;23.60;52.20;;;;;;5130290;27;20027;-57
2020/12/07 12:02:01;;;;;;;3.20;0.75;;;23.60;51.90;;;;;;5119651;27;20030;-59
2020/12/07 12:04:27;;;;;;;1.77;0.98;;;23.60;49.40;;;;;;5121452;27;20030;-60
2020/12/07 12:06:52;;;;;;;1.70;1.00;;;23.60;47.60;;;;;;5122493;27;20039;-53
2020/12/07 12:09:18;;;;;;;2.28;1.15;;;23.50;47.70;;;;;;5127862;27;20468;-54
2020/12/07 12:11:44;;;;;;;2.15;0.90;;;23.50;47.80;;;;;;5127160;27;20373;-52
2020/12/07 12:14:10;;;;;;;1.92;0.82;;;23.40;47.80;;;;;;5121460;27;20120;-53
2020/12/07 12:16:38;;;;;;;1.52;0.80;;;23.40;47.90;;;;;;5121371;27;20032;-56
2020/12/07 12:19:06;;;;;;;1.42;1.00;;;23.40;47.80;;;;;;5127321;27;20019;-57
2020/12/07 12:21:32;;;;;;;1.55;1.00;;;23.40;47.80;;;;;;5123822;27;20086;-55
2020/12/07 12:24:01;;;;;;;2.10;1.00;;;23.30;47.80;;;;;;5123603;27;20418;-56
2020/12/07 12:26:27;;;;;;;1.50;0.90;;;23.30;48.30;;;;;;5101578;27;20031;-57
2020/12/07 12:28:52;;;;;;;2.28;0.90;;;23.30;47.80;;;;;;5127567;27;20855;-58
2020/12/07 12:31:18;;;;;;;1.70;1.10;;;23.30;47.80;;;;;;5120990;27;20055;-51
2020/12/07 12:33:44;;;;;;;0.80;0.73;;;23.20;47.70;;;;;;5127921;27;20038;-53
2020/12/07 12:36:19;;;;;;;1.50;1.00;;;23.20;47.70;;;;;;5122503;27;20024;-56
2020/12/07 12:38:45;;;;;;;2.28;1.00;;;23.20;47.70;;;;;;5125707;27;20028;-53
2020/12/07 12:41:12;;;;;;;1.02;0.70;;;23.20;47.60;;;;;;5124670;27;20753;-54
2020/12/07 12:43:37;;;;;;;1.70;1.00;;;23.20;47.60;;;;;;5111442;27;20023;-58
2020/12/07 12:46:06;;;;;;;1.80;0.90;;;23.20;47.60;;;;;;5121821;27;20328;-56
2020/12/07 12:48:33;;;;;;;1.42;0.90;;;23.10;47.50;;;;;;5120940;27;20130;-55
2020/12/07 12:50:59;;;;;;;2.83;1.20;;;23.10;47.40;;;;;;5117898;27;20040;-54
2020/12/07 12:53:24;;;;;;;1.98;1.00;;;23.20;47.20;;;;;;5114113;27;20107;-53
2020/12/07 12:55:50;;;;;;;1.73;0.90;;;23.10;47.00;;;;;;5107230;27;20125;-55
2020/12/07 12:58:16;;;;;;;2.92;0.82;;;23.10;47.40;;;;;;5123430;27;20459;-54
2020/12/07 13:00:41;;;;;;;1.27;0.68;;;23.10;47.70;;;;;;5130606;27;20027;-53
2020/12/07 13:03:07;;;;;;;1.98;0.90;;;23.10;47.90;;;;;;5128812;27;20094;-57
2020/12/07 13:05:33;;;;;;;1.65;0.90;;;23.10;48.20;;;;;;5115307;27;20047;-50
2020/12/07 13:07:58;;;;;;;1.77;0.90;;;23.20;48.40;;;;;;5118937;27;20027;-57
2020/12/07 13:10:24;;;;;;;1.67;0.80;;;23.20;48.50;;;;;;5121420;27;20031;-54
2020/12/07 13:12:49;;;;;;;1.00;0.73;;;23.20;48.80;;;;;;5116494;27;20647;-58
2020/12/07 13:15:15;;;;;;;1.45;0.88;;;23.30;48.90;;;;;;5128853;27;20034;-56
2020/12/07 13:17:43;;;;;;;0.60;0.60;;;23.30;49.00;;;;;;5122201;27;20054;-55
2020/12/07 13:20:11;;;;;;;1.35;0.80;;;23.30;49.00;;;;;;5132537;27;20027;-58
2020/12/07 13:27:49;;;;;;;1.42;0.70;;;23.40;49.50;;;;;;5129375;27;20529;-57
2020/12/07 13:30:17;;;;;;;1.95;0.85;;;23.40;49.50;;;;;;5115353;27;20027;-58